createdAt,value
2023-05-19T00:01:20.371Z,1.10
2023-05-19T00:03:54.770Z,1.00
2023-05-19T00:06:31.707Z,0.80
2023-05-19T00:09:03.163Z,1.00
2023-05-19T00:11:30.891Z,1.60
2023-05-19T00:13:59.592Z,1.53
2023-05-19T00:16:29.594Z,1.63
2023-05-19T00:19:00.140Z,1.20
2023-05-19T00:21:27.832Z,1.37
2023-05-19T00:23:55.386Z,1.37
2023-05-19T00:26:23.310Z,0.97
2023-05-19T00:28:50.696Z,1.43
2023-05-19T00:31:17.800Z,0.87
2023-05-19T00:33:45.021Z,1.10
2023-05-19T00:36:12.430Z,0.93
2023-05-19T00:38:39.530Z,1.83
2023-05-19T00:41:06.892Z,1.30
2023-05-19T00:43:37.215Z,1.60
2023-05-19T00:46:04.210Z,2.00
2023-05-19T00:48:31.273Z,1.73
2023-05-19T00:51:04.396Z,2.40
2023-05-19T00:53:33.550Z,2.40
2023-05-19T00:56:02.181Z,1.60
2023-05-19T00:58:31.213Z,1.47
2023-05-19T01:01:07.332Z,1.53
2023-05-19T01:03:38.280Z,1.50
2023-05-19T01:06:05.665Z,1.60
2023-05-19T01:08:33.774Z,1.70
2023-05-19T01:11:01.397Z,1.80
2023-05-19T01:13:29.352Z,1.53
2023-05-19T01:16:21.506Z,1.47
2023-05-19T01:19:15.475Z,2.10
2023-05-19T01:21:48.242Z,2.40
2023-05-19T01:25:08.602Z,1.90
2023-05-19T01:27:50.692Z,1.33
2023-05-19T01:30:37.290Z,1.63
2023-05-19T01:33:07.336Z,2.17
2023-05-19T01:35:37.653Z,1.43
2023-05-19T01:38:07.951Z,1.60
2023-05-19T01:40:36.202Z,1.90
2023-05-19T01:43:04.564Z,1.60
2023-05-19T01:45:34.009Z,1.60
2023-05-19T01:48:03.687Z,1.67
2023-05-19T01:50:32.009Z,1.30
2023-05-19T01:52:59.386Z,1.60
2023-05-19T01:55:26.829Z,2.30
2023-05-19T01:58:11.751Z,1.70
2023-05-19T02:01:22.326Z,1.77
2023-05-19T02:03:57.973Z,1.53
2023-05-19T02:06:41.796Z,1.50
2023-05-19T02:09:25.537Z,1.37
2023-05-19T02:11:56.627Z,1.60
2023-05-19T02:14:46.463Z,2.10
2023-05-19T02:17:16.200Z,1.50
2023-05-19T02:19:44.278Z,1.63
2023-05-19T02:22:11.238Z,1.77
2023-05-19T02:24:39.504Z,1.30
2023-05-19T02:27:06.515Z,1.30
2023-05-19T02:29:33.467Z,1.77
2023-05-19T02:32:01.716Z,1.80
2023-05-19T02:34:28.747Z,1.83
2023-05-19T02:36:56.554Z,1.50
2023-05-19T02:39:23.637Z,1.80
2023-05-19T02:41:50.618Z,1.53
2023-05-19T02:44:17.623Z,1.30
2023-05-19T02:46:44.682Z,1.20
2023-05-19T02:49:11.694Z,1.60
2023-05-19T02:51:38.693Z,1.60
2023-05-19T02:54:05.752Z,1.50
2023-05-19T02:56:32.835Z,1.27
2023-05-19T02:58:59.807Z,1.63
2023-05-19T03:01:26.847Z,1.73
2023-05-19T03:03:53.867Z,1.80
2023-05-19T03:06:23.293Z,1.67
2023-05-19T03:08:50.968Z,2.50
2023-05-19T03:11:17.989Z,1.43
2023-05-19T03:13:44.938Z,1.70
2023-05-19T03:16:11.963Z,1.47
2023-05-19T03:18:38.992Z,1.97
2023-05-19T03:21:06.072Z,1.20
2023-05-19T03:23:33.055Z,1.40
2023-05-19T03:26:00.192Z,1.70
2023-05-19T03:28:27.572Z,1.60
2023-05-19T03:30:54.581Z,1.57
2023-05-19T03:33:21.820Z,1.37
2023-05-19T03:35:48.871Z,1.40
2023-05-19T03:38:15.846Z,1.30
2023-05-19T03:40:43.188Z,1.80
2023-05-19T03:43:10.154Z,1.53
2023-05-19T03:45:37.153Z,1.50
2023-05-19T03:48:04.418Z,1.90
2023-05-19T03:50:32.003Z,1.30
2023-05-19T03:52:59.172Z,1.23
2023-05-19T03:55:26.650Z,1.40
2023-05-19T03:57:53.705Z,1.70
2023-05-19T04:00:20.655Z,1.80
2023-05-19T04:02:47.843Z,1.70
2023-05-19T04:05:15.256Z,1.73
2023-05-19T04:07:43.123Z,1.47
2023-05-19T04:10:11.028Z,1.57
2023-05-19T04:12:37.945Z,1.53
2023-05-19T04:15:08.475Z,1.30
2023-05-19T04:17:35.513Z,1.63
2023-05-19T04:20:02.580Z,1.27
2023-05-19T04:22:29.541Z,1.50
2023-05-19T04:24:56.484Z,1.47
2023-05-19T04:27:23.630Z,1.60
2023-05-19T04:29:50.558Z,1.33
2023-05-19T04:32:17.719Z,1.13
2023-05-19T04:34:47.715Z,1.23
2023-05-19T04:37:16.306Z,2.13
2023-05-19T04:39:45.232Z,1.77
2023-05-19T04:42:13.335Z,1.70
2023-05-19T04:44:40.380Z,1.17
2023-05-19T04:47:09.120Z,1.80
2023-05-19T04:49:39.592Z,1.87
2023-05-19T04:52:13.922Z,1.33
2023-05-19T04:54:41.891Z,2.13
2023-05-19T04:57:10.514Z,1.63
2023-05-19T04:59:37.512Z,1.47
2023-05-19T05:02:04.619Z,1.23
2023-05-19T05:04:31.684Z,1.50
2023-05-19T05:06:58.604Z,1.33
2023-05-19T05:09:25.817Z,1.60
2023-05-19T05:11:53.038Z,1.60
2023-05-19T05:14:20.368Z,1.37
2023-05-19T05:16:47.855Z,1.30
2023-05-19T05:19:15.398Z,1.30
2023-05-19T05:21:43.269Z,1.40
2023-05-19T05:24:10.987Z,1.70
2023-05-19T05:26:38.443Z,1.70
2023-05-19T05:29:06.534Z,1.40
2023-05-19T05:31:33.510Z,1.20
2023-05-19T05:34:00.794Z,1.40
2023-05-19T05:36:27.746Z,1.57
2023-05-19T05:38:54.841Z,1.63
2023-05-19T05:41:22.208Z,1.40
2023-05-19T05:43:49.186Z,1.23
2023-05-19T05:46:16.792Z,1.97
2023-05-19T05:48:44.134Z,1.70
2023-05-19T05:51:11.219Z,1.50
2023-05-19T05:53:43.351Z,1.20
2023-05-19T05:56:11.762Z,1.40
2023-05-19T05:58:40.770Z,1.77
2023-05-19T06:01:11.385Z,1.50
2023-05-19T06:03:40.910Z,1.67
2023-05-19T06:06:08.083Z,1.67
2023-05-19T06:08:35.056Z,1.30
2023-05-19T06:11:08.248Z,1.43
2023-05-19T06:13:39.452Z,1.20
2023-05-19T06:16:06.802Z,1.43
2023-05-19T06:18:33.815Z,1.77
2023-05-19T06:21:01.742Z,1.10
2023-05-19T06:23:30.320Z,1.30
2023-05-19T06:25:57.790Z,1.50
2023-05-19T06:28:24.792Z,1.30
2023-05-19T06:30:51.834Z,1.30
2023-05-19T06:33:19.109Z,1.30
2023-05-19T06:35:46.054Z,1.30
2023-05-19T06:38:13.056Z,1.40
2023-05-19T06:40:40.363Z,1.30
2023-05-19T06:43:07.482Z,1.67
2023-05-19T06:45:34.528Z,1.00
2023-05-19T06:48:01.522Z,1.23
2023-05-19T06:50:28.587Z,1.30
2023-05-19T06:52:57.262Z,1.30
2023-05-19T06:55:24.401Z,1.30
2023-05-19T06:57:51.315Z,1.83
2023-05-19T07:00:19.937Z,1.73
2023-05-19T07:02:49.149Z,1.40
2023-05-19T07:05:16.292Z,1.30
2023-05-19T07:07:43.830Z,1.20
2023-05-19T07:10:11.394Z,1.30
2023-05-19T07:12:38.406Z,1.00
2023-05-19T07:15:06.004Z,1.33
2023-05-19T07:17:33.346Z,1.63
2023-05-19T07:20:01.708Z,1.27
2023-05-19T07:22:28.812Z,1.27
2023-05-19T07:24:57.159Z,1.10
2023-05-19T07:27:24.213Z,1.00
2023-05-19T07:29:51.214Z,0.90
2023-05-19T07:32:18.496Z,1.30
2023-05-19T07:34:45.689Z,1.13
2023-05-19T07:37:12.837Z,1.10
2023-05-19T07:39:39.829Z,1.37
2023-05-19T07:42:06.824Z,1.10
2023-05-19T07:44:34.696Z,1.33
2023-05-19T07:47:02.188Z,1.33
2023-05-19T07:49:29.487Z,1.00
2023-05-19T07:51:57.294Z,1.10
2023-05-19T07:54:24.314Z,0.93
2023-05-19T07:56:51.237Z,1.33
2023-05-19T07:59:18.297Z,1.30
2023-05-19T08:01:45.675Z,1.33
2023-05-19T08:04:13.272Z,1.60
2023-05-19T08:06:42.748Z,1.43
2023-05-19T08:09:12.040Z,1.20
2023-05-19T08:11:39.167Z,1.30
2023-05-19T08:14:06.296Z,1.10
2023-05-19T08:16:33.276Z,1.13
2023-05-19T08:19:02.719Z,1.20
2023-05-19T08:21:29.851Z,1.20
2023-05-19T08:23:57.212Z,1.00
2023-05-19T08:26:24.209Z,1.20
2023-05-19T08:28:51.203Z,1.07
2023-05-19T08:31:18.887Z,1.10
2023-05-19T08:33:46.142Z,0.90
2023-05-19T08:36:13.143Z,1.10
2023-05-19T08:38:40.072Z,1.47
2023-05-19T08:41:07.248Z,1.03
2023-05-19T08:43:34.287Z,1.00
2023-05-19T08:46:01.248Z,1.10
2023-05-19T08:48:31.320Z,0.80
2023-05-19T08:51:27.630Z,0.97
2023-05-19T08:53:59.704Z,0.87
2023-05-19T08:56:27.888Z,1.10
2023-05-19T08:58:56.633Z,0.80
2023-05-19T09:01:24.076Z,1.00
2023-05-19T09:03:52.322Z,1.00
2023-05-19T09:06:19.396Z,0.93
2023-05-19T09:08:47.208Z,0.70
2023-05-19T09:11:14.525Z,1.13
2023-05-19T09:13:41.538Z,1.17
2023-05-19T09:16:08.858Z,0.80
2023-05-19T09:18:40.047Z,0.93
2023-05-19T09:21:07.560Z,1.03
2023-05-19T09:23:35.000Z,0.80
2023-05-19T09:26:04.529Z,1.00
2023-05-19T09:28:33.848Z,1.27
2023-05-19T09:31:09.155Z,0.80
2023-05-19T09:33:38.437Z,0.80
2023-05-19T09:36:06.531Z,0.53
2023-05-19T09:38:34.754Z,0.70
2023-05-19T09:41:02.561Z,0.80
2023-05-19T09:43:34.530Z,0.90
2023-05-19T09:46:05.984Z,0.93
2023-05-19T09:48:34.668Z,0.80
2023-05-19T09:51:02.721Z,0.97
2023-05-19T09:53:32.670Z,0.68
2023-05-19T09:56:02.114Z,0.50
2023-05-19T09:58:36.630Z,0.80
2023-05-19T10:01:05.493Z,0.70
2023-05-19T10:03:34.192Z,0.70
2023-05-19T10:06:09.370Z,1.05
2023-05-19T10:08:37.590Z,0.55
2023-05-19T10:11:05.724Z,0.47
2023-05-19T10:13:35.908Z,0.70
2023-05-19T10:16:03.814Z,0.50
2023-05-19T10:18:33.450Z,0.40
2023-05-19T10:21:01.779Z,0.55
2023-05-19T10:23:28.835Z,0.88
2023-05-19T10:25:58.819Z,0.45
2023-05-19T10:28:33.087Z,0.47
2023-05-19T10:31:01.799Z,0.50
2023-05-19T10:34:11.976Z,0.70
2023-05-19T10:37:12.129Z,0.60
2023-05-19T10:39:42.586Z,0.82
2023-05-19T10:42:34.881Z,0.60
2023-05-19T10:45:20.002Z,0.50
2023-05-19T10:47:47.147Z,0.85
2023-05-19T10:50:14.465Z,0.45
2023-05-19T10:52:41.523Z,0.35
2023-05-19T10:55:59.105Z,0.50
2023-05-19T10:58:46.471Z,0.90
2023-05-19T11:01:15.017Z,0.60
2023-05-19T11:03:53.517Z,0.55
2023-05-19T11:06:21.935Z,0.63
2023-05-19T11:08:54.212Z,0.50
2023-05-19T11:11:23.445Z,0.68
2023-05-19T11:13:55.449Z,0.57
2023-05-19T11:16:35.013Z,0.70
2023-05-19T11:19:02.568Z,0.70
2023-05-19T11:21:55.376Z,0.40
2023-05-19T11:24:35.998Z,0.50
2023-05-19T11:27:32.829Z,0.93
2023-05-19T11:30:05.422Z,0.70
2023-05-19T11:32:33.973Z,0.90
2023-05-19T11:35:02.016Z,0.82
2023-05-19T11:37:33.042Z,0.50
2023-05-19T11:40:02.752Z,0.60
2023-05-19T11:42:29.941Z,0.70
2023-05-19T11:44:57.029Z,0.88
2023-05-19T11:47:24.092Z,0.50
2023-05-19T11:49:57.912Z,0.60
2023-05-19T11:52:27.380Z,0.50
2023-05-19T11:54:54.407Z,0.65
2023-05-19T11:57:21.399Z,0.68
2023-05-19T11:59:49.886Z,0.60
2023-05-19T12:02:19.700Z,0.60
2023-05-19T12:04:50.928Z,0.60
2023-05-19T12:07:20.354Z,0.70
2023-05-19T12:09:47.865Z,0.60
2023-05-19T12:12:22.017Z,0.65
2023-05-19T12:14:53.346Z,0.50
2023-05-19T12:17:21.453Z,0.60
2023-05-19T12:19:49.909Z,0.65
2023-05-19T12:22:17.842Z,0.52
2023-05-19T12:24:46.363Z,0.65
2023-05-19T12:27:21.132Z,0.43
2023-05-19T12:29:55.071Z,0.70
2023-05-19T12:32:26.709Z,0.45
2023-05-19T12:34:57.693Z,0.40
2023-05-19T12:37:30.069Z,0.40
2023-05-19T12:39:57.932Z,0.52
2023-05-19T12:42:31.230Z,0.60
2023-05-19T12:45:02.204Z,0.50
2023-05-19T12:47:33.289Z,0.60
2023-05-19T12:50:00.351Z,0.60
2023-05-19T12:52:29.318Z,0.65
2023-05-19T12:55:01.342Z,0.70
2023-05-19T12:57:32.150Z,0.40
2023-05-19T13:00:12.439Z,0.57
2023-05-19T13:02:55.868Z,0.63
2023-05-19T13:05:23.232Z,0.50
2023-05-19T13:08:02.271Z,0.43
2023-05-19T13:10:29.901Z,0.60
2023-05-19T13:12:58.806Z,0.40
2023-05-19T13:15:27.504Z,0.67
2023-05-19T13:17:55.186Z,0.40
2023-05-19T13:20:22.362Z,0.60
2023-05-19T13:22:49.970Z,0.80
2023-05-19T13:25:17.228Z,0.67
2023-05-19T13:27:48.218Z,0.50
2023-05-19T13:30:16.310Z,0.63
2023-05-19T13:32:43.314Z,0.60
2023-05-19T13:35:11.077Z,0.50
2023-05-19T13:37:39.518Z,0.60
2023-05-19T13:40:07.498Z,0.43
2023-05-19T13:42:35.285Z,0.77
2023-05-19T13:45:03.228Z,0.50
2023-05-19T13:47:30.501Z,0.85
2023-05-19T13:49:57.694Z,0.63
2023-05-19T13:52:25.612Z,0.60
2023-05-19T13:54:56.914Z,0.50
2023-05-19T13:57:24.442Z,0.50
2023-05-19T14:00:01.584Z,0.50
2023-05-19T14:02:30.032Z,0.50
2023-05-19T14:04:57.615Z,0.77
2023-05-19T14:07:25.759Z,0.60
2023-05-19T14:09:53.115Z,0.60
2023-05-19T14:12:23.249Z,0.40
2023-05-19T14:14:52.376Z,0.60
2023-05-19T14:17:19.373Z,0.50
2023-05-19T14:19:46.337Z,0.50
2023-05-19T14:22:13.498Z,0.63
2023-05-19T14:24:41.591Z,0.73
2023-05-19T14:27:08.663Z,0.60
2023-05-19T14:29:35.621Z,0.50
2023-05-19T14:32:03.453Z,0.60
2023-05-19T14:34:30.705Z,0.63
2023-05-19T14:36:57.847Z,0.60
2023-05-19T14:39:24.794Z,0.70
2023-05-19T14:41:53.015Z,0.50
2023-05-19T14:44:20.040Z,0.60
2023-05-19T14:46:47.027Z,0.80
2023-05-19T14:49:14.021Z,0.70
2023-05-19T14:51:40.986Z,0.50
2023-05-19T14:54:07.995Z,0.70
2023-05-19T14:56:35.230Z,0.63
2023-05-19T14:59:02.226Z,0.70
2023-05-19T15:01:29.287Z,0.70
2023-05-19T15:03:56.378Z,0.63
2023-05-19T15:06:23.593Z,0.77
2023-05-19T15:08:50.614Z,0.90
2023-05-19T15:11:17.706Z,0.60
2023-05-19T15:13:44.844Z,0.53
2023-05-19T15:18:41.779Z,1.17
2023-05-19T15:21:08.724Z,0.50
2023-05-19T15:23:35.822Z,0.63
2023-05-19T15:26:02.910Z,0.70
2023-05-19T15:28:29.993Z,1.00
2023-05-19T15:30:56.982Z,0.63
2023-05-19T15:33:24.228Z,0.50
2023-05-19T15:35:52.247Z,0.50
2023-05-19T15:38:22.369Z,1.10
2023-05-19T15:40:49.409Z,0.70
2023-05-19T15:43:17.416Z,1.17
2023-05-19T15:45:44.402Z,0.70
2023-05-19T15:48:11.584Z,0.60
2023-05-19T15:50:38.766Z,0.40
2023-05-19T15:53:07.759Z,0.93
2023-05-19T15:55:35.130Z,1.20
2023-05-19T15:58:02.123Z,1.63
2023-05-19T16:00:29.445Z,0.83
2023-05-19T16:02:56.494Z,0.80
2023-05-19T16:05:23.646Z,0.83
2023-05-19T16:07:50.763Z,0.60
2023-05-19T16:10:17.738Z,0.77
2023-05-19T16:12:44.745Z,0.80
2023-05-19T16:15:12.106Z,0.83
2023-05-19T16:17:39.060Z,0.70
2023-05-19T16:20:06.811Z,0.73
2023-05-19T16:22:33.936Z,0.80
2023-05-19T16:25:00.912Z,0.73
2023-05-19T16:27:27.928Z,0.63
2023-05-19T16:29:55.596Z,0.60
2023-05-19T16:32:22.605Z,0.80
2023-05-19T16:34:49.624Z,0.77
2023-05-19T16:37:16.595Z,0.97
2023-05-19T16:39:44.022Z,0.80
2023-05-19T16:42:11.139Z,0.60
2023-05-19T16:44:38.076Z,0.60
2023-05-19T16:47:05.156Z,0.97
2023-05-19T16:49:33.599Z,1.07
2023-05-19T16:52:00.638Z,0.80
2023-05-19T16:54:28.935Z,0.80
2023-05-19T16:56:55.943Z,0.70
2023-05-19T16:59:22.890Z,0.70
2023-05-19T17:01:50.130Z,1.07
2023-05-19T17:04:17.123Z,0.90
2023-05-19T17:06:44.160Z,0.83
2023-05-19T17:09:11.233Z,1.10
2023-05-19T17:11:38.247Z,0.60
2023-05-19T17:14:08.155Z,0.87
2023-05-19T17:16:36.031Z,0.77
2023-05-19T17:19:04.020Z,0.70
2023-05-19T17:21:31.755Z,0.77
2023-05-19T17:23:58.798Z,0.60
2023-05-19T17:26:26.512Z,0.60
2023-05-19T17:28:53.579Z,0.53
2023-05-19T17:31:20.703Z,0.80
2023-05-19T17:33:47.805Z,0.70
2023-05-19T17:36:15.133Z,0.60
2023-05-19T17:38:42.533Z,0.90
2023-05-19T17:41:10.131Z,0.87
2023-05-19T17:43:38.259Z,0.70
2023-05-19T17:46:05.481Z,0.63
2023-05-19T17:48:33.166Z,0.50
2023-05-19T17:51:00.516Z,0.60
2023-05-19T17:53:27.852Z,0.50
2023-05-19T17:55:59.686Z,0.90
2023-05-19T17:58:27.501Z,0.47
2023-05-19T18:00:55.420Z,0.63
2023-05-19T18:03:23.335Z,0.63
2023-05-19T18:05:51.201Z,0.60
2023-05-19T18:08:18.728Z,0.50
2023-05-19T18:10:51.611Z,0.63
2023-05-19T18:13:18.906Z,0.50
2023-05-19T18:15:46.285Z,0.57
2023-05-19T18:18:13.317Z,0.40
2023-05-19T18:20:44.288Z,0.50
2023-05-19T18:23:12.145Z,0.80
2023-05-19T18:25:39.297Z,0.63
2023-05-19T18:28:06.295Z,0.70
2023-05-19T18:30:33.536Z,0.83
2023-05-19T18:33:03.750Z,0.53
2023-05-19T18:35:31.067Z,0.87
2023-05-19T18:37:58.061Z,0.80
2023-05-19T18:40:25.103Z,0.80
2023-05-19T18:42:52.203Z,0.70
2023-05-19T18:45:19.339Z,0.60
2023-05-19T18:47:46.567Z,0.73
2023-05-19T18:50:14.371Z,1.20
2023-05-19T18:52:41.429Z,0.70
2023-05-19T18:55:08.907Z,0.53
2023-05-19T18:57:36.008Z,0.50
2023-05-19T19:00:04.342Z,0.63
2023-05-19T19:02:31.414Z,0.50
2023-05-19T19:04:58.595Z,0.50
2023-05-19T19:07:27.785Z,0.53
2023-05-19T19:09:54.706Z,0.60
2023-05-19T19:12:21.669Z,0.97
2023-05-19T19:14:48.770Z,0.43
2023-05-19T19:17:16.008Z,0.80
2023-05-19T19:19:43.357Z,0.70
2023-05-19T19:22:10.557Z,0.57
2023-05-19T19:24:37.455Z,0.80
2023-05-19T19:27:04.759Z,0.73
2023-05-19T19:29:31.693Z,0.90
2023-05-19T19:31:58.692Z,0.90
2023-05-19T19:34:25.704Z,0.60
2023-05-19T19:36:52.857Z,0.80
2023-05-19T19:39:19.912Z,0.90
2023-05-19T19:41:46.880Z,0.60
2023-05-19T19:44:13.905Z,0.73
2023-05-19T19:46:41.293Z,0.70
2023-05-19T19:49:08.405Z,0.73
2023-05-19T19:51:35.408Z,0.73
2023-05-19T19:54:02.393Z,1.00
2023-05-19T19:56:29.451Z,0.90
2023-05-19T19:58:59.036Z,0.80
2023-05-19T20:01:27.756Z,0.80
2023-05-19T20:03:55.990Z,1.33
2023-05-19T20:06:23.477Z,0.43
2023-05-19T20:08:50.564Z,0.70
2023-05-19T20:11:17.696Z,0.60
2023-05-19T20:13:44.644Z,0.70
2023-05-19T20:16:11.785Z,0.90
2023-05-19T20:18:39.688Z,0.80
2023-05-19T20:21:06.755Z,0.60
2023-05-19T20:23:33.906Z,0.83
2023-05-19T20:26:11.845Z,0.70
2023-05-19T20:28:39.977Z,0.83
2023-05-19T20:31:07.731Z,0.60
2023-05-19T20:33:35.021Z,0.90
2023-05-19T20:36:02.037Z,1.00
2023-05-19T20:38:29.079Z,0.80
2023-05-19T20:40:56.491Z,0.90
2023-05-19T20:43:23.424Z,0.77
2023-05-19T20:45:51.409Z,0.80
2023-05-19T20:48:18.595Z,1.93
2023-05-19T20:50:45.830Z,4.90
2023-05-19T20:53:12.795Z,2.17
2023-05-19T20:55:39.830Z,1.27
2023-05-19T20:58:06.915Z,7.40
2023-05-19T21:00:34.122Z,3.13
2023-05-19T21:03:01.608Z,1.10
2023-05-19T21:05:29.071Z,1.93
2023-05-19T21:07:56.356Z,5.67
2023-05-19T21:10:23.680Z,3.47
2023-05-19T21:12:50.772Z,1.10
2023-05-19T21:15:17.796Z,1.50
2023-05-19T21:17:44.884Z,0.87
2023-05-19T21:20:12.309Z,0.70
2023-05-19T21:22:40.977Z,0.70
2023-05-19T21:25:08.381Z,0.60
2023-05-19T21:27:36.292Z,0.63
2023-05-19T21:30:03.437Z,0.90
2023-05-19T21:32:30.583Z,0.40
2023-05-19T21:34:57.596Z,0.73
2023-05-19T21:37:24.654Z,0.50
2023-05-19T21:39:51.681Z,4.30
2023-05-19T21:42:18.790Z,10.57
2023-05-19T21:44:45.745Z,7.37
2023-05-19T21:47:12.847Z,7.47
2023-05-19T21:49:40.684Z,12.03
2023-05-19T21:52:08.075Z,8.83
2023-05-19T21:54:36.160Z,7.63
2023-05-19T21:57:03.984Z,5.80
2023-05-19T21:59:30.921Z,3.63
2023-05-19T22:01:58.483Z,3.87
2023-05-19T22:04:25.707Z,1.90
2023-05-19T22:06:53.694Z,1.13
2023-05-19T22:09:20.687Z,0.77
2023-05-19T22:11:47.670Z,1.17
2023-05-19T22:14:14.695Z,0.70
2023-05-19T22:16:41.727Z,0.77
2023-05-19T22:19:08.786Z,0.53
2023-05-19T22:21:36.206Z,0.83
2023-05-19T22:24:03.249Z,0.50
2023-05-19T22:26:30.256Z,0.90
2023-05-19T22:28:57.319Z,0.80
2023-05-19T22:31:24.295Z,0.70
2023-05-19T22:33:51.274Z,0.70
2023-05-19T22:36:18.306Z,0.70
2023-05-19T22:38:45.550Z,0.80
2023-05-19T22:41:12.487Z,0.70
2023-05-19T22:43:39.573Z,0.70
2023-05-19T22:46:06.561Z,0.70
2023-05-19T22:48:33.520Z,0.67
2023-05-19T22:51:00.493Z,0.80
2023-05-19T22:53:27.476Z,0.67
2023-05-19T22:55:54.537Z,0.80
2023-05-19T22:58:21.472Z,0.50
2023-05-19T23:00:48.861Z,0.50
2023-05-19T23:03:16.045Z,0.67
2023-05-19T23:05:43.194Z,0.63
2023-05-19T23:08:10.158Z,0.77
2023-05-19T23:10:37.155Z,0.60
2023-05-19T23:13:04.843Z,0.77
2023-05-19T23:15:31.879Z,0.60
2023-05-19T23:17:59.031Z,0.77
2023-05-19T23:20:26.056Z,0.60
2023-05-19T23:22:53.008Z,0.70
2023-05-19T23:25:19.962Z,0.70
2023-05-19T23:27:46.901Z,0.60
2023-05-19T23:30:14.042Z,0.47
2023-05-19T23:32:41.133Z,0.80
2023-05-19T23:35:16.791Z,0.97
2023-05-19T23:37:43.972Z,0.70
2023-05-19T23:40:11.629Z,0.80
2023-05-19T23:42:38.793Z,0.70
2023-05-19T23:45:06.267Z,0.80
2023-05-19T23:47:33.309Z,0.60
2023-05-19T23:50:00.403Z,0.77
2023-05-19T23:52:27.380Z,0.83
2023-05-19T23:54:54.369Z,0.83
2023-05-19T23:57:21.437Z,0.60
2023-05-19T23:59:48.523Z,0.70
